X  Zatvori METAR Podaci o vazduhoplovstvu     LQBK Banja Luka International Airport
Temperatura
24°C Temperatura
9°C Tačka rose
39% Vlaga



vjetar
3 KM/S
2 MPS
1 M/S
2 Čvorova



Tiho
S
Trenutna situacija

Vedro Vedro
Vazdušni pritisak 1001.02 (hPa) - 29.56 (inHg)
Vidljivost 6 (Milje) - 9.7 (km)
Aerodrom
Aerodromski kod. LQBK

Lokacija: Banja Luka International Airport
Udaljenost: 70 (km)

Metar:
LQBK 160800Z VRB02KT CAVOK 24/09 Q1001 NOSIG

Vreme: 16-04-2024 10:00 CEST